FABL

Details ICAO FABL (BFN)
Name Bloemfontein
Region South Africa
Timezone Africa/Johannesburg (UTC+2.0)
Plans Departing 60
Arriving 88
Stats Elevation 4,458 ft / 1,359 m (AMSL)
Location -29.092600° 26.299400°
Runways 2
Magnetic Variation 22.590° W
Sunrise 2018-12-13 03:10:58 UTC / 2018-12-13 05:10:58 Local
Sunset 2018-12-13 17:09:34 UTC / 2018-12-13 19:09:34 Local
Advertisement - Login to hide

Runways

ID Width Length Bearing (true/mag) Surface Threshold Overrun Markings Lighting
02 151 ft / 46 m 8,404 ft / 2,562 m 0.00° / 22.59° ASPHALT 0 ft / 0 m 0 ft / 0 m APP EDGE THRESHOLD
12 151 ft / 46 m 7,207 ft / 2,197 m 101.00° / 123.59° ASPHALT 0 ft / 0 m 0 ft / 0 m APP EDGE THRESHOLD
20 151 ft / 46 m 8,404 ft / 2,562 m 180.00° / 202.59° ASPHALT 0 ft / 0 m 0 ft / 0 m APP EDGE THRESHOLD
30 151 ft / 46 m 7,207 ft / 2,197 m 281.00° / 303.58° ASPHALT 0 ft / 0 m 0 ft / 0 m APP EDGE THRESHOLD

Map

Weather


0- 5 10 15 20 25 30 35+ Temperature / °C

Clouds and Precipitation
Forecast for 2018-12-13 00:00 UTC. Updated 5 hours ago

Ground ~20,000 ft ~40,000 ft Winds

METAR

FABL 130200Z AUTO VRB01KT 9999 ///////// 16/00 Q1019

TAF

Not found

Frequencies

Tower 118.10 MHz
Approach 124.30 MHz
Recorded 126.65 MHz ATIS
Warning: Do not use this data for real-world aviation or navigation. No guarantee of current accuracy is given.